This is the latest recevied weather packets stored in our database for station/object DC4AT. If no packets are shown the sender has not sent any weather packets the latest 10 day(s).
| Time | Temp. | Humidity | Pressure | Rain* | Wind** | Luminosity | Snow |
|---|---|---|---|---|---|---|---|
| 1787943453 | 17.22° C | 83% | 1009.9 hPa | 0 mm | - | 0 W/m² | - |
| 1787942853 | 17.22° C | 83% | 1009.9 hPa | 0 mm | - | 0 W/m² | - |
| 1787942253 | 17.78° C | 83% | 1009.7 hPa | 0 mm | - | 0 W/m² | - |
| 1787941653 | 17.78° C | 84% | 1009.4 hPa | 0 mm | - | 0 W/m² | - |
| 1787941053 | 17.78° C | 84% | 1009.2 hPa | 0 mm | - | 0 W/m² | - |
| 1787940453 | 18.33° C | 85% | 1009.2 hPa | 0 mm | - | 5 W/m² | - |
| 1787939853 | 18.33° C | 85% | 1009 hPa | 0 mm | - | 16 W/m² | - |
| 1787939253 | 18.89° C | 85% | 1009.1 hPa | 0 mm | - | 40 W/m² | - |
| 1787938653 | 18.89° C | 85% | 1009.2 hPa | 0 mm | - | 91 W/m² | - |
| 1787938053 | 18.89° C | 85% | 1009.3 hPa | 0 mm | - | 95 W/m² | - |
| 1787937453 | 19.44° C | 84% | 1009.4 hPa | 0 mm | - | 120 W/m² | - |
| 1787936853 | 19.44° C | 83% | 1009.3 hPa | 0 mm | - | 171 W/m² | - |
| 1787936253 | 18.89° C | 82% | 1009 hPa | 0 mm | - | 200 W/m² | - |
| 1787935653 | 18.89° C | 81% | 1009.1 hPa | 0.25 mm | - | 130 W/m² | - |
| 1787935053 | 18.33° C | 82% | 1008.7 hPa | 2.79 mm | - | 243 W/m² | - |
| 1787934453 | 18.33° C | 82% | 1008.9 hPa | 4.57 mm | - | 265 W/m² | - |
| 1787933853 | 17.78° C | 82% | 1008.6 hPa | 4.57 mm | - | 227 W/m² | - |
| 1787933253 | 17.22° C | 84% | 1009.2 hPa | 4.57 mm | - | 30 W/m² | - |
| 1787932654 | 17.78° C | 85% | 1009.1 hPa | 4.57 mm | - | 30 W/m² | - |
| 1787932053 | 17.78° C | 85% | 1009.1 hPa | 4.32 mm | - | 32 W/m² | - |
| 1787931454 | 18.89° C | 82% | 1009.3 hPa | 1.78 mm | - | 5 W/m² | - |
| 1787930854 | 20.56° C | 75% | 1008.8 hPa | 0 mm | - | 5 W/m² | - |
| 1787930254 | 22.22° C | 73% | 1008.2 hPa | 0 mm | - | 7 W/m² | - |
| 1787929654 | 22.78° C | 76% | 1007.9 hPa | 0 mm | - | 25 W/m² | - |
| 1787929054 | 22.78° C | 77% | 1007.9 hPa | 0 mm | - | 62 W/m² | - |
* Rain latest hour (hover to see other rain measurements)
** Current wind speed in m/s (hover to see current wind gust speed)